createdAt,value
2022-08-05T00:03:54.875Z,3.97
2022-08-05T00:08:01.290Z,4.72
2022-08-05T00:12:03.890Z,5.70
2022-08-05T00:16:12.637Z,4.07
2022-08-05T00:20:14.747Z,5.10
2022-08-05T00:24:24.544Z,4.53
2022-08-05T00:32:43.313Z,5.20
2022-08-05T00:37:11.167Z,5.28
2022-08-05T00:41:11.755Z,7.63
2022-08-05T00:45:13.905Z,5.63
2022-08-05T00:49:19.190Z,4.53
2022-08-05T00:54:01.218Z,6.38
2022-08-05T00:57:58.751Z,6.05
2022-08-05T01:02:00.972Z,13.98
2022-08-05T01:06:03.930Z,4.68
2022-08-05T01:10:18.588Z,4.55
2022-08-05T01:14:37.309Z,8.75
2022-08-05T01:18:48.167Z,5.22
2022-08-05T01:23:14.914Z,4.20
2022-08-05T01:27:50.703Z,8.00
2022-08-05T01:32:02.716Z,7.05
2022-08-05T01:36:16.265Z,5.90
2022-08-05T01:40:19.727Z,5.20
2022-08-05T01:44:34.212Z,4.97
2022-08-05T01:48:39.157Z,5.38
2022-08-05T01:52:50.049Z,4.10
2022-08-05T01:58:13.647Z,4.72
2022-08-05T02:01:17.647Z,6.95
2022-08-05T02:05:34.388Z,5.00
2022-08-05T02:09:38.054Z,4.63
2022-08-05T02:14:07.746Z,4.97
2022-08-05T02:18:42.638Z,13.18
2022-08-05T02:22:46.796Z,3.70
2022-08-05T02:26:56.250Z,9.30
2022-08-05T02:31:02.822Z,6.20
2022-08-05T02:35:14.102Z,6.28
2022-08-05T02:39:21.387Z,5.13
2022-08-05T02:43:24.779Z,4.55
2022-08-05T02:47:58.692Z,4.38
2022-08-05T02:52:03.876Z,7.60
2022-08-05T02:56:09.943Z,5.55
2022-08-05T03:00:19.684Z,4.53
2022-08-05T03:04:22.998Z,7.00
2022-08-05T03:08:29.607Z,6.72
2022-08-05T03:12:39.762Z,5.50
2022-08-05T03:16:42.899Z,6.43
2022-08-05T03:20:48.881Z,6.07
2022-08-05T03:29:12.266Z,4.72
2022-08-05T03:33:22.088Z,6.97
2022-08-05T03:37:26.043Z,7.55
2022-08-05T03:41:33.014Z,5.97
2022-08-05T03:45:57.930Z,6.85
2022-08-05T03:50:00.730Z,5.10
2022-08-05T03:55:49.904Z,6.88
2022-08-05T03:58:33.351Z,4.95
2022-08-05T04:02:52.220Z,5.53
2022-08-05T04:07:01.647Z,4.25
2022-08-05T04:11:08.637Z,7.20
2022-08-05T04:15:15.603Z,6.63
2022-08-05T04:19:18.515Z,4.75
2022-08-05T04:24:05.676Z,5.15
2022-08-05T04:27:56.799Z,5.80
2022-08-05T04:32:00.049Z,5.22
2022-08-05T04:36:15.581Z,5.20
2022-08-05T04:40:23.992Z,8.55
2022-08-05T04:44:30.243Z,5.50
2022-08-05T04:48:32.518Z,5.30
2022-08-05T04:52:34.497Z,5.35
2022-08-05T05:00:54.168Z,5.82
2022-08-05T05:05:02.743Z,6.82
2022-08-05T05:09:05.637Z,9.13
2022-08-05T05:13:08.356Z,6.10
2022-08-05T05:17:10.335Z,7.22
2022-08-05T05:21:12.356Z,6.35
2022-08-05T05:25:32.632Z,9.27
2022-08-05T05:30:04.359Z,7.35
2022-08-05T05:34:05.348Z,6.30
2022-08-05T05:38:09.247Z,6.97
2022-08-05T05:42:14.913Z,16.55
2022-08-05T05:46:18.892Z,17.10
2022-08-05T05:50:21.374Z,34.00
2022-08-05T05:54:50.816Z,21.80
2022-08-05T05:58:47.831Z,15.05
2022-08-05T06:02:52.053Z,7.88
2022-08-05T06:06:53.828Z,6.13
2022-08-05T06:10:56.443Z,6.38
2022-08-05T06:15:00.329Z,10.05
2022-08-05T06:19:05.642Z,10.55
2022-08-05T06:23:09.266Z,4.70
2022-08-05T06:28:10.500Z,7.95
2022-08-05T06:31:42.644Z,11.23
2022-08-05T06:36:07.297Z,12.63
2022-08-05T06:40:06.590Z,10.82
2022-08-05T06:44:08.324Z,6.43
2022-08-05T06:48:37.016Z,7.05
2022-08-05T06:52:36.578Z,4.68
2022-08-05T06:56:40.114Z,7.75
2022-08-05T07:00:59.969Z,6.68
2022-08-05T07:05:01.885Z,6.25
2022-08-05T07:09:04.714Z,8.10
2022-08-05T07:13:52.449Z,6.10
2022-08-05T07:18:00.754Z,4.65
2022-08-05T07:22:08.454Z,8.45
2022-08-05T07:26:10.210Z,3.33
2022-08-05T07:30:24.441Z,6.05
2022-08-05T07:34:32.258Z,4.28
2022-08-05T07:38:45.660Z,4.30
2022-08-05T07:42:50.715Z,4.68
2022-08-05T07:46:52.643Z,3.55
2022-08-05T07:50:55.702Z,5.15
2022-08-05T07:55:01.436Z,4.90
2022-08-05T07:59:05.442Z,5.63
2022-08-05T08:03:13.932Z,5.03
2022-08-05T08:07:23.154Z,6.05
2022-08-05T08:11:27.654Z,5.57
2022-08-05T08:16:34.309Z,3.70
2022-08-05T08:20:44.605Z,7.13
2022-08-05T08:24:51.070Z,8.77
2022-08-05T08:28:59.095Z,3.38
2022-08-05T08:33:13.871Z,4.30
2022-08-05T08:37:18.752Z,6.65
2022-08-05T08:41:26.350Z,5.55
2022-08-05T08:45:49.518Z,6.00
2022-08-05T08:50:23.139Z,4.63
2022-08-05T08:54:16.561Z,5.18
2022-08-05T08:58:26.018Z,4.10
2022-08-05T09:02:28.774Z,3.40
2022-08-05T09:06:31.499Z,4.88
2022-08-05T09:10:36.314Z,5.63
2022-08-05T09:14:58.581Z,2.33
2022-08-05T09:19:06.794Z,3.08
2022-08-05T09:23:18.714Z,3.50
2022-08-05T09:28:04.213Z,4.13
2022-08-05T09:32:45.964Z,5.80
2022-08-05T09:36:54.350Z,2.25
2022-08-05T09:41:11.966Z,2.28
2022-08-05T09:46:07.766Z,3.92
2022-08-05T09:50:00.920Z,3.35
2022-08-05T09:54:07.423Z,1.98
2022-08-05T09:58:17.237Z,3.42
2022-08-05T10:02:31.786Z,1.80
2022-08-05T10:06:49.984Z,2.35
2022-08-05T10:11:04.595Z,5.15
2022-08-05T10:15:20.434Z,3.58
2022-08-05T10:20:03.296Z,3.33
2022-08-05T10:23:59.706Z,2.13
2022-08-05T10:28:13.021Z,2.42
2022-08-05T10:32:53.917Z,2.60
2022-08-05T10:36:45.858Z,2.00
2022-08-05T10:40:51.809Z,4.18
2022-08-05T10:45:00.232Z,2.72
2022-08-05T10:49:09.896Z,2.42
2022-08-05T10:53:39.493Z,2.88
2022-08-05T10:57:54.891Z,1.85
2022-08-05T11:02:14.745Z,4.50
2022-08-05T11:07:06.808Z,2.13
2022-08-05T11:11:52.811Z,4.20
2022-08-05T11:16:21.792Z,2.33
2022-08-05T11:20:39.267Z,1.90
2022-08-05T11:25:01.575Z,4.70
2022-08-05T11:33:51.674Z,3.85
2022-08-05T11:38:29.985Z,1.80
2022-08-05T11:42:18.404Z,3.90
2022-08-05T11:46:58.205Z,2.63
2022-08-05T11:51:08.436Z,2.28
2022-08-05T11:55:13.326Z,3.83
2022-08-05T11:59:21.322Z,4.10
2022-08-05T12:03:31.606Z,3.35
2022-08-05T12:08:10.499Z,2.58
2022-08-05T12:11:59.442Z,3.22
2022-08-05T12:16:15.060Z,2.50
2022-08-05T12:20:30.662Z,2.22
2022-08-05T12:24:41.022Z,2.50
2022-08-05T12:28:51.424Z,2.20
2022-08-05T12:32:56.329Z,2.20
2022-08-05T12:37:10.683Z,2.08
2022-08-05T12:42:09.201Z,2.67
2022-08-05T12:46:29.369Z,2.65
2022-08-05T12:50:31.753Z,2.35
2022-08-05T12:54:35.907Z,2.65
2022-08-05T12:58:53.568Z,3.08
2022-08-05T13:02:57.164Z,2.33
2022-08-05T13:07:04.984Z,2.35
2022-08-05T13:11:25.499Z,4.97
2022-08-05T13:15:50.537Z,2.17
2022-08-05T13:20:05.711Z,2.20
2022-08-05T13:24:08.664Z,3.15
2022-08-05T13:28:11.598Z,2.50
2022-08-05T13:32:21.488Z,3.42
2022-08-05T13:36:34.300Z,5.45
2022-08-05T13:40:42.418Z,2.95
2022-08-05T13:44:55.051Z,3.38
2022-08-05T13:49:00.891Z,5.47
2022-08-05T13:53:03.091Z,2.65
2022-08-05T13:57:12.045Z,2.40
2022-08-05T14:01:18.183Z,2.30
2022-08-05T14:05:48.447Z,3.30
2022-08-05T14:09:46.474Z,4.40
2022-08-05T14:13:48.690Z,2.05
2022-08-05T14:22:15.427Z,4.82
2022-08-05T14:26:38.592Z,5.00
2022-08-05T14:30:46.327Z,2.33
2022-08-05T14:34:48.793Z,2.78
2022-08-05T14:38:53.606Z,2.35
2022-08-05T14:42:55.984Z,3.05
2022-08-05T14:46:58.286Z,5.25
2022-08-05T14:51:00.103Z,6.43
2022-08-05T14:55:06.396Z,3.53
2022-08-05T14:59:08.287Z,5.03
2022-08-05T15:03:10.038Z,2.95
2022-08-05T15:07:21.689Z,2.90
2022-08-05T15:11:53.067Z,4.80
2022-08-05T15:15:56.543Z,5.07
2022-08-05T15:19:58.516Z,2.17
2022-08-05T15:24:00.361Z,4.05
2022-08-05T15:28:02.152Z,6.00
2022-08-05T15:32:04.092Z,4.10
2022-08-05T15:36:54.650Z,5.30
2022-08-05T15:41:04.038Z,5.03
2022-08-05T15:45:18.981Z,6.63
2022-08-05T15:49:56.673Z,3.25
2022-08-05T15:54:01.071Z,3.53
2022-08-05T16:02:19.795Z,3.67
2022-08-05T16:06:31.985Z,4.07
2022-08-05T16:10:34.037Z,2.80
2022-08-05T16:14:36.128Z,3.40
2022-08-05T16:18:52.302Z,2.65
2022-08-05T16:22:54.697Z,2.47
2022-08-05T16:27:01.732Z,3.28
2022-08-05T16:31:05.519Z,3.03
2022-08-05T16:35:16.094Z,2.55
2022-08-05T16:39:21.015Z,3.22
2022-08-05T16:47:48.440Z,4.43
2022-08-05T16:51:56.988Z,2.78
2022-08-05T16:55:59.099Z,3.95
2022-08-05T17:00:08.373Z,6.47
2022-08-05T17:04:10.522Z,5.50
2022-08-05T17:08:13.327Z,3.70
2022-08-05T17:12:32.393Z,5.32
2022-08-05T17:16:38.156Z,2.50
2022-08-05T17:20:40.736Z,3.13
2022-08-05T17:24:56.919Z,3.42
2022-08-05T17:29:00.154Z,3.30
2022-08-05T17:33:09.205Z,3.63
2022-08-05T17:37:27.305Z,6.57
2022-08-05T17:42:20.438Z,4.30
2022-08-05T17:45:54.866Z,5.53
2022-08-05T17:50:55.174Z,5.30
2022-08-05T17:59:26.742Z,9.07
2022-08-05T18:07:57.031Z,5.90
2022-08-05T18:11:59.603Z,7.10
2022-08-05T18:16:04.061Z,4.80
2022-08-05T18:20:15.228Z,4.65
2022-08-05T18:24:18.321Z,4.35
2022-08-05T18:28:22.958Z,10.35
2022-08-05T18:32:30.707Z,5.18
2022-08-05T18:36:35.583Z,4.45
2022-08-05T18:41:57.941Z,2.75
2022-08-05T18:44:59.471Z,4.28
2022-08-05T18:49:21.899Z,6.13
2022-08-05T18:53:25.221Z,2.80
2022-08-05T18:57:28.267Z,3.63
2022-08-05T19:01:48.129Z,4.00
2022-08-05T19:06:13.094Z,3.63
2022-08-05T19:10:28.027Z,4.60
2022-08-05T19:14:52.113Z,6.05
2022-08-05T19:18:53.259Z,3.15
2022-08-05T19:22:58.359Z,2.83
2022-08-05T19:27:00.361Z,2.97
2022-08-05T19:31:06.276Z,5.35
2022-08-05T19:35:08.724Z,3.05
2022-08-05T19:39:10.521Z,5.93
2022-08-05T19:43:24.379Z,5.00
2022-08-05T19:47:37.111Z,5.18
2022-08-05T19:52:08.523Z,6.18
2022-08-05T19:56:13.999Z,4.05
2022-08-05T20:00:22.474Z,3.60
2022-08-05T20:04:24.192Z,5.68
2022-08-05T20:08:25.905Z,5.72
2022-08-05T20:12:27.971Z,5.25
2022-08-05T20:16:30.118Z,5.63
2022-08-05T20:20:32.045Z,5.63
2022-08-05T20:24:34.638Z,8.57
2022-08-05T20:28:37.038Z,4.82
2022-08-05T20:32:45.241Z,3.72
2022-08-05T20:36:47.279Z,4.25
2022-08-05T20:40:50.330Z,5.15
2022-08-05T20:44:52.386Z,5.05
2022-08-05T20:48:54.685Z,6.95
2022-08-05T20:52:56.521Z,8.10
2022-08-05T20:56:58.390Z,5.80
2022-08-05T21:01:00.244Z,6.88
2022-08-05T21:05:02.605Z,5.55
2022-08-05T21:09:07.824Z,6.50
2022-08-05T21:13:15.890Z,5.97
2022-08-05T21:17:21.414Z,7.28
2022-08-05T21:21:24.517Z,7.68
2022-08-05T21:25:26.342Z,9.52
2022-08-05T21:29:40.670Z,6.50
2022-08-05T21:33:42.681Z,6.45
2022-08-05T21:37:53.391Z,7.72
2022-08-05T21:42:01.632Z,9.10
2022-08-05T21:46:04.921Z,8.48
2022-08-05T21:50:10.050Z,10.77
2022-08-05T21:54:14.263Z,15.07
2022-08-05T21:58:16.125Z,13.10
2022-08-05T22:02:21.029Z,13.45
2022-08-05T22:06:37.017Z,13.48
2022-08-05T22:10:41.527Z,14.48
2022-08-05T22:14:46.317Z,12.55
2022-08-05T22:18:49.235Z,13.07
2022-08-05T22:23:17.228Z,12.68
2022-08-05T22:28:10.474Z,16.75
2022-08-05T22:32:03.961Z,13.75
2022-08-05T22:36:05.810Z,14.45
2022-08-05T22:40:08.734Z,18.40
2022-08-05T22:44:12.097Z,17.35
2022-08-05T22:48:14.014Z,15.10
2022-08-05T22:52:32.718Z,14.63
2022-08-05T22:56:36.428Z,14.55
2022-08-05T23:00:41.910Z,12.63
2022-08-05T23:04:51.661Z,13.07
2022-08-05T23:08:54.365Z,13.98
2022-08-05T23:12:56.129Z,13.45
2022-08-05T23:17:16.324Z,13.75
2022-08-05T23:21:25.658Z,13.13
2022-08-05T23:25:52.253Z,15.35
2022-08-05T23:29:57.377Z,11.20
2022-08-05T23:34:03.712Z,14.95
2022-08-05T23:38:08.485Z,12.05
2022-08-05T23:42:14.400Z,11.43
2022-08-05T23:46:21.223Z,14.25
2022-08-05T23:50:23.700Z,10.85
2022-08-05T23:54:33.961Z,8.77
2022-08-05T23:58:40.097Z,6.18
